Time;durP1;ratioP1;P1;durP2;ratioP2;P2;SDS_P1;SDS_P2;PMS_P1;PMS_P2;Temp;Humidity;BMP_temperature;BMP_pressure;BME280_temperature;BME280_humidity;BME280_pressure;Samples;Min_cycle;Max_cycle;Signal;HPM_P1;HPM_P2
2024/03/24 00:00:16;;;;;;;5.57;2.30;;;;;;;5.82;100.00;100434.22;5045570;28;20032;-84
2024/03/24 00:02:41;;;;;;;5.22;2.67;;;;;;;5.88;100.00;100424.53;5066502;28;20311;-84
2024/03/24 00:05:07;;;;;;;8.15;3.17;;;;;;;5.93;100.00;100420.06;5067117;28;20062;-84
2024/03/24 00:07:33;;;;;;;4.82;2.28;;;;;;;5.96;100.00;100416.53;5071455;28;20107;-84
2024/03/24 00:09:58;;;;;;;5.90;2.35;;;;;;;5.93;100.00;100424.38;5048421;28;20106;-84
2024/03/24 00:12:23;;;;;;;10.25;2.90;;;;;;;5.86;100.00;100417.69;5068252;28;20033;-84
2024/03/24 00:14:49;;;;;;;7.40;2.80;;;;;;;5.90;100.00;100417.53;5065876;28;20296;-84
2024/03/24 00:17:15;;;;;;;15.20;3.17;;;;;;;5.88;100.00;100427.13;5048703;28;20142;-83
2024/03/24 00:19:40;;;;;;;14.98;2.70;;;;;;;5.85;100.00;100419.41;5067077;28;20100;-83
2024/03/24 00:22:06;;;;;;;11.13;3.10;;;;;;;5.93;100.00;100425.25;5063398;28;20112;-83
2024/03/24 00:24:32;;;;;;;13.75;3.33;;;;;;;6.04;100.00;100425.00;5040047;28;20059;-84
2024/03/24 00:26:58;;;;;;;12.02;3.30;;;;;;;6.08;100.00;100420.56;5066591;28;20095;-85
2024/03/24 00:29:23;;;;;;;15.60;3.42;;;;;;;6.12;100.00;100416.97;5065636;28;20246;-83
2024/03/24 00:31:49;;;;;;;14.70;3.33;;;;;;;6.17;100.00;100412.50;5059867;28;20247;-83
2024/03/24 00:34:14;;;;;;;13.27;3.40;;;;;;;6.22;100.00;100412.34;5077283;28;20047;-83
2024/03/24 00:36:39;;;;;;;8.88;2.97;;;;;;;6.22;100.00;100399.34;5075954;28;20024;-83
2024/03/24 00:39:07;;;;;;;19.00;3.70;;;;;;;6.20;100.00;100406.34;5061613;28;20264;-83
2024/03/24 00:41:32;;;;;;;8.35;2.80;;;;;;;6.23;100.00;100395.84;5065822;28;20100;-84
2024/03/24 00:43:58;;;;;;;12.60;3.47;;;;;;;6.21;100.00;100390.69;5041650;28;20021;-84
2024/03/24 00:46:23;;;;;;;21.85;3.75;;;;;;;6.20;100.00;100390.72;5059790;28;20263;-83
2024/03/24 00:48:48;;;;;;;10.75;3.00;;;;;;;6.22;100.00;100397.59;5063616;28;20029;-84
2024/03/24 00:51:14;;;;;;;11.85;3.08;;;;;;;6.30;100.00;100387.81;5076905;28;20044;-84
2024/03/24 00:53:40;;;;;;;17.40;3.67;;;;;;;6.35;100.00;100382.47;5062356;28;20381;-83
2024/03/24 00:56:05;;;;;;;15.02;3.50;;;;;;;6.35;100.00;100385.09;5066564;28;20039;-83
2024/03/24 00:58:31;;;;;;;11.05;3.58;;;;;;;6.39;100.00;100376.28;5074417;28;20039;-84
2024/03/24 01:00:56;;;;;;;7.45;3.05;;;;;;;6.40;100.00;100369.31;5071241;28;20351;-84
2024/03/24 01:03:22;;;;;;;17.33;3.53;;;;;;;6.41;100.00;100377.09;5064027;28;20029;-83
2024/03/24 01:05:48;;;;;;;12.70;3.00;;;;;;;6.39;100.00;100376.28;5071912;28;20049;-84
2024/03/24 01:08:14;;;;;;;11.18;3.30;;;;;;;6.42;100.00;100367.53;5079500;28;20059;-84
2024/03/24 01:10:40;;;;;;;12.60;3.28;;;;;;;6.43;100.00;100371.84;5059391;28;20118;-84
2024/03/24 01:13:05;;;;;;;10.68;2.97;;;;;;;6.47;100.00;100386.44;5068761;28;20036;-83
2024/03/24 01:15:31;;;;;;;14.05;2.63;;;;;;;6.44;100.00;100384.81;5065149;28;20047;-83
2024/03/24 01:17:56;;;;;;;7.97;2.72;;;;;;;6.45;100.00;100360.47;5049904;28;20086;-83
2024/03/24 01:20:21;;;;;;;14.82;3.05;;;;;;;6.42;100.00;100367.53;5060748;28;20060;-83
2024/03/24 01:22:47;;;;;;;7.80;3.08;;;;;;;6.42;100.00;100354.50;5060779;28;20039;-84
2024/03/24 01:25:12;;;;;;;11.50;2.72;;;;;;;6.41;100.00;100345.88;5061678;28;20128;-83
2024/03/24 01:27:37;;;;;;;16.70;3.30;;;;;;;6.42;100.00;100368.41;5067056;28;20242;-83
2024/03/24 01:30:03;;;;;;;11.45;2.78;;;;;;;6.29;100.00;100361.84;5079090;28;20075;-83
2024/03/24 01:32:29;;;;;;;11.63;3.60;;;;;;;6.21;100.00;100348.25;5051334;28;20024;-83
2024/03/24 01:34:54;;;;;;;6.40;2.38;;;;;;;6.19;100.00;100352.66;5059995;28;20063;-83
2024/03/24 01:37:19;;;;;;;8.38;2.47;;;;;;;6.19;100.00;100337.03;5074982;28;20036;-84
2024/03/24 01:39:46;;;;;;;7.20;2.65;;;;;;;6.24;100.00;100338.59;5055704;28;20095;-83
2024/03/24 01:42:13;;;;;;;10.48;2.88;;;;;;;6.33;100.00;100338.31;5079973;28;20032;-83
2024/03/24 01:44:38;;;;;;;6.35;2.75;;;;;;;6.34;100.00;100321.78;5066617;28;20043;-83
2024/03/24 01:47:04;;;;;;;23.08;3.58;;;;;;;6.39;100.00;100320.81;5070351;28;20339;-84
2024/03/24 01:49:29;;;;;;;9.77;3.17;;;;;;;6.40;100.00;100309.50;5044853;28;20100;-83
2024/03/24 01:51:55;;;;;;;14.27;3.85;;;;;;;6.27;100.00;100307.28;5059904;28;20044;-83
2024/03/24 01:54:21;;;;;;;13.82;3.95;;;;;;;6.26;100.00;100313.41;5059516;28;20040;-83
2024/03/24 01:56:47;;;;;;;20.05;3.88;;;;;;;6.27;100.00;100312.47;5061958;28;20060;-83
2024/03/24 01:59:13;;;;;;;17.27;4.28;;;;;;;6.31;100.00;100298.50;5069231;28;20063;-83
2024/03/24 02:01:39;;;;;;;23.42;4.82;;;;;;;6.33;100.00;100307.09;5066522;28;20028;-83
2024/03/24 02:04:08;;;;;;;16.13;4.30;;;;;;;6.33;100.00;100317.50;5069772;28;20267;-83
2024/03/24 02:06:33;;;;;;;13.25;3.40;;;;;;;6.40;100.00;100299.09;5024982;28;1101622;-84
2024/03/24 02:08:59;;;;;;;13.43;3.40;;;;;;;6.45;100.00;100300.66;5070316;28;20028;-84
2024/03/24 02:11:24;;;;;;;15.25;3.28;;;;;;;6.46;100.00;100307.56;5075730;28;20052;-84
2024/03/24 02:13:58;;;;;;;12.65;3.50;;;;;;;6.47;100.00;100298.00;5067424;28;20056;-84
2024/03/24 02:16:24;;;;;;;21.23;4.18;;;;;;;6.45;100.00;100302.41;5060565;28;20104;-83
2024/03/24 02:18:49;;;;;;;10.80;3.60;;;;;;;6.43;100.00;100306.81;5063791;28;20044;-83
2024/03/24 02:21:14;;;;;;;9.98;3.65;;;;;;;6.43;100.00;100310.25;5067984;28;20090;-82
2024/03/24 02:23:40;;;;;;;14.15;2.72;;;;;;;6.46;100.00;100291.94;5060952;28;20033;-83
2024/03/24 02:26:05;;;;;;;13.15;3.67;;;;;;;6.49;100.00;100285.78;5061171;28;20052;-83
2024/03/24 02:28:30;;;;;;;15.27;3.55;;;;;;;6.49;100.00;100298.78;5073679;28;20055;-82
2024/03/24 02:30:56;;;;;;;15.90;3.55;;;;;;;6.48;100.00;100292.75;5070630;28;20267;-83
2024/03/24 02:33:21;;;;;;;18.13;4.28;;;;;;;6.49;100.00;100298.78;5060588;28;20036;-83
2024/03/24 02:35:48;;;;;;;13.98;3.47;;;;;;;6.43;100.00;100293.81;5069086;28;20036;-83
2024/03/24 02:38:14;;;;;;;19.08;4.55;;;;;;;6.49;100.00;100277.97;5068282;28;20048;-83
2024/03/24 02:40:40;;;;;;;13.95;3.78;;;;;;;6.54;100.00;100294.28;5058514;28;20036;-83
2024/03/24 02:43:05;;;;;;;12.85;4.00;;;;;;;6.53;100.00;100297.78;5080819;28;20032;-83
2024/03/24 02:45:31;;;;;;;18.30;4.47;;;;;;;6.55;100.00;100283.00;5070034;28;20181;-83
2024/03/24 02:47:56;;;;;;;14.00;3.53;;;;;;;6.57;100.00;100286.41;5060689;28;20041;-84
2024/03/24 02:50:21;;;;;;;18.88;4.30;;;;;;;6.58;100.00;100293.28;5058586;28;20339;-83
2024/03/24 02:52:47;;;;;;;20.15;4.25;;;;;;;6.60;100.00;100294.09;5060383;28;20319;-83
2024/03/24 02:55:12;;;;;;;18.83;4.07;;;;;;;6.58;100.00;100282.03;5068928;28;20057;-84
2024/03/24 02:57:37;;;;;;;13.18;4.05;;;;;;;6.51;100.00;100281.38;5051178;28;20032;-83
2024/03/24 03:00:05;;;;;;;11.05;4.13;;;;;;;6.53;100.00;100303.00;5069004;28;20029;-83
2024/03/24 03:02:31;;;;;;;14.50;4.00;;;;;;;6.43;100.00;100291.19;5066898;28;20033;-82
2024/03/24 03:04:57;;;;;;;17.20;4.43;;;;;;;6.49;100.00;100293.59;5063591;28;20036;-82
2024/03/24 03:07:23;;;;;;;13.13;3.58;;;;;;;6.50;100.00;100283.13;5074793;28;20052;-82
2024/03/24 03:09:50;;;;;;;19.92;4.50;;;;;;;6.43;100.00;100283.41;5068548;28;20063;-83
2024/03/24 03:12:16;;;;;;;13.13;4.22;;;;;;;6.42;100.00;100281.69;5075053;28;20039;-83
2024/03/24 03:14:41;;;;;;;20.58;4.20;;;;;;;6.46;100.00;100285.91;5066781;28;20092;-83
2024/03/24 03:17:07;;;;;;;13.10;4.47;;;;;;;6.48;100.00;100297.13;5072599;28;20238;-80
2024/03/24 03:19:32;;;;;;;16.65;4.07;;;;;;;6.48;100.00;100278.91;5060068;28;20033;-83
2024/03/24 03:21:57;;;;;;;16.77;3.88;;;;;;;6.49;100.00;100284.06;5072135;28;20200;-84
2024/03/24 03:24:23;;;;;;;12.27;3.38;;;;;;;6.47;100.00;100280.63;5077930;28;20059;-81
2024/03/24 03:26:48;;;;;;;27.80;4.32;;;;;;;6.48;100.00;100297.94;5075290;28;20041;-83
2024/03/24 03:29:13;;;;;;;10.57;3.47;;;;;;;6.43;100.00;100296.41;5077478;28;20040;-83
2024/03/24 03:31:39;;;;;;;13.68;2.67;;;;;;;6.37;100.00;100310.47;5076483;28;20043;-82
2024/03/24 03:34:04;;;;;;;7.72;1.98;;;;;;;6.32;100.00;100328.78;5079184;28;20032;-83
2024/03/24 03:36:29;;;;;;;8.70;1.80;;;;;;;6.09;100.00;100319.13;5056041;28;20028;-81
2024/03/24 03:38:55;;;;;;;6.70;1.50;;;;;;;5.94;100.00;100316.94;5077166;28;20131;-83
2024/03/24 03:41:20;;;;;;;3.60;1.02;;;;;;;5.90;100.00;100316.19;5073013;28;20048;-83
2024/03/24 03:43:46;;;;;;;7.22;1.10;;;;;;;5.76;100.00;100323.53;5061282;28;20040;-83
2024/03/24 03:46:11;;;;;;;5.97;1.63;;;;;;;5.65;100.00;100331.63;5072088;28;20110;-82
2024/03/24 03:48:40;;;;;;;7.93;1.55;;;;;;;5.62;100.00;100321.34;5059479;28;20071;-83
2024/03/24 03:51:17;;;;;;;5.03;1.35;;;;;;;5.48;100.00;100313.94;5062876;28;20024;-83
2024/03/24 03:53:42;;;;;;;5.88;1.30;;;;;;;5.60;100.00;100304.06;5077724;28;20384;-83
2024/03/24 03:56:08;;;;;;;7.22;1.98;;;;;;;5.54;100.00;100307.69;5075710;28;20044;-84
2024/03/24 03:58:34;;;;;;;3.60;0.80;;;;;;;5.50;100.00;100306.94;5071780;28;20041;-84
2024/03/24 04:01:00;;;;;;;3.15;1.10;;;;;;;5.45;100.00;100305.38;5059567;28;20208;-84
2024/03/24 04:03:26;;;;;;;3.80;1.13;;;;;;;5.41;100.00;100307.19;5070751;28;20028;-84
2024/03/24 04:05:51;;;;;;;3.88;1.23;;;;;;;5.50;100.00;100299.16;5058427;28;20041;-84
2024/03/24 04:08:16;;;;;;;6.20;1.23;;;;;;;5.48;100.00;100302.69;5068277;28;20036;-84
2024/03/24 04:10:42;;;;;;;4.78;1.38;;;;;;;5.48;100.00;100308.72;5077516;28;20089;-84
2024/03/24 04:13:07;;;;;;;6.57;1.30;;;;;;;5.43;100.00;100308.00;5059855;28;20048;-84
2024/03/24 04:15:32;;;;;;;4.25;1.10;;;;;;;5.38;100.00;100312.47;5069346;28;20025;-84
2024/03/24 04:17:58;;;;;;;6.38;1.20;;;;;;;5.37;100.00;100314.22;5065435;28;20357;-84
2024/03/24 04:20:23;;;;;;;6.82;1.30;;;;;;;5.33;100.00;100312.59;5060148;28;20081;-84
2024/03/24 04:22:51;;;;;;;5.93;1.25;;;;;;;5.40;100.00;100313.28;5063709;28;20032;-84
2024/03/24 04:25:17;;;;;;;2.73;1.00;;;;;;;5.40;100.00;100321.06;5068739;28;20075;-84
2024/03/24 04:27:43;;;;;;;2.97;1.10;;;;;;;5.51;100.00;100308.66;5041842;28;20233;-84
2024/03/24 04:30:09;;;;;;;4.68;0.98;;;;;;;5.53;100.00;100304.25;5078200;28;20046;-84
2024/03/24 04:32:34;;;;;;;5.22;1.08;;;;;;;5.64;100.00;100306.56;5061069;28;20075;-84
2024/03/24 04:35:00;;;;;;;2.05;0.98;;;;;;;5.70;100.00;100316.75;5072356;28;20024;-84
2024/03/24 04:37:26;;;;;;;4.65;1.17;;;;;;;5.70;100.00;100308.13;5063091;28;20064;-84
2024/03/24 04:39:51;;;;;;;11.90;2.58;;;;;;;5.66;100.00;100304.75;5071281;28;20337;-84
2024/03/24 04:42:16;;;;;;;5.75;1.10;;;;;;;5.67;100.00;100303.84;5072485;28;20048;-84
2024/03/24 04:44:42;;;;;;;3.20;1.13;;;;;;;5.73;100.00;100308.00;5058313;28;20044;-84
2024/03/24 04:47:07;;;;;;;2.20;0.95;;;;;;;5.79;100.00;100305.25;5077367;28;20059;-84
2024/03/24 04:49:33;;;;;;;3.42;1.35;;;;;;;5.82;100.00;100291.31;5058010;28;20389;-84
2024/03/24 04:51:58;;;;;;;3.95;1.52;;;;;;;5.82;100.00;100288.72;5057974;28;20040;-84
2024/03/24 04:54:23;;;;;;;7.85;1.88;;;;;;;5.79;100.00;100294.84;5076659;28;20246;-84
2024/03/24 04:56:49;;;;;;;6.93;1.80;;;;;;;5.78;100.00;100290.53;5077397;28;20028;-84
2024/03/24 04:59:14;;;;;;;7.43;1.98;;;;;;;5.86;100.00;100283.38;5075689;28;20284;-84
2024/03/24 05:01:39;;;;;;;7.50;2.47;;;;;;;5.86;100.00;100287.75;5065987;28;20039;-85
2024/03/24 05:04:05;;;;;;;13.25;3.13;;;;;;;5.84;100.00;100287.78;5041549;28;20028;-85
2024/03/24 05:06:31;;;;;;;13.50;3.67;;;;;;;5.85;100.00;100289.47;5062190;28;20775;-85
2024/03/24 05:08:57;;;;;;;9.65;3.03;;;;;;;5.89;100.00;100287.63;5075694;28;20274;-84
2024/03/24 05:11:23;;;;;;;9.65;3.53;;;;;;;5.90;100.00;100300.59;5051928;28;20028;-84
2024/03/24 05:13:48;;;;;;;14.95;3.67;;;;;;;5.88;100.00;100302.38;5058022;28;20045;-84
2024/03/24 05:16:14;;;;;;;10.20;3.97;;;;;;;5.89;100.00;100301.47;5073115;28;20248;-84
2024/03/24 05:18:39;;;;;;;8.32;2.90;;;;;;;5.92;100.00;100282.34;5059691;28;20082;-84
2024/03/24 05:21:05;;;;;;;13.32;4.05;;;;;;;5.92;100.00;100298.78;5061671;28;20267;-85
2024/03/24 05:23:33;;;;;;;13.27;4.68;;;;;;;5.89;100.00;100293.66;5066351;28;20036;-85
2024/03/24 05:25:59;;;;;;;8.82;3.85;;;;;;;5.88;100.00;100301.53;5059779;28;20033;-85
2024/03/24 05:28:24;;;;;;;12.48;4.30;;;;;;;5.89;100.00;100303.22;5062601;28;20041;-84
2024/03/24 05:30:52;;;;;;;11.10;3.05;;;;;;;5.95;100.00;100313.47;5068616;28;20100;-85
2024/03/24 05:33:17;;;;;;;13.07;3.58;;;;;;;5.86;100.00;100309.38;5062062;28;20032;-85
2024/03/24 05:35:44;;;;;;;13.40;3.53;;;;;;;5.80;100.00;100319.94;5062937;28;20110;-84
2024/03/24 05:38:10;;;;;;;8.93;3.40;;;;;;;5.86;100.00;100329.31;5072679;28;20038;-84
2024/03/24 05:40:35;;;;;;;20.73;4.50;;;;;;;5.81;100.00;100331.19;5078833;28;20282;-83
2024/03/24 05:43:00;;;;;;;9.57;3.25;;;;;;;5.81;100.00;100326.84;5059644;28;20048;-84
2024/03/24 05:45:26;;;;;;;8.07;3.08;;;;;;;5.84;100.00;100334.56;5075020;28;20043;-84
2024/03/24 05:47:51;;;;;;;11.75;3.38;;;;;;;5.86;100.00;100335.38;5061310;28;20031;-84
2024/03/24 05:50:17;;;;;;;13.18;3.42;;;;;;;5.87;100.00;100337.06;5061883;28;20044;-84
2024/03/24 05:52:42;;;;;;;10.98;3.38;;;;;;;5.92;100.00;100329.97;5081452;28;20339;-84
2024/03/24 05:55:09;;;;;;;12.85;3.53;;;;;;;5.88;100.00;100335.31;5080038;28;20059;-84
2024/03/24 05:57:34;;;;;;;8.95;3.35;;;;;;;5.83;100.00;100339.78;5060350;28;20104;-84
2024/03/24 06:00:00;;;;;;;13.95;3.88;;;;;;;5.81;100.00;100350.22;5079012;28;20062;-84
2024/03/24 06:02:28;;;;;;;11.43;3.70;;;;;;;5.84;100.00;100347.56;5079658;28;20067;-85
2024/03/24 06:04:53;;;;;;;10.80;4.17;;;;;;;5.85;100.00;100362.22;5071809;28;20044;-84
2024/03/24 06:07:19;;;;;;;17.20;4.10;;;;;;;5.85;100.00;100358.78;5061871;28;20386;-84
2024/03/24 06:09:45;;;;;;;18.98;3.70;;;;;;;5.86;100.00;100357.91;5061286;28;20040;-84
2024/03/24 06:12:10;;;;;;;13.10;3.67;;;;;;;5.86;100.00;100353.56;5074932;28;20058;-85
2024/03/24 06:14:36;;;;;;;21.23;4.28;;;;;;;5.93;100.00;100354.22;5078698;28;20027;-85
2024/03/24 06:17:01;;;;;;;10.32;3.50;;;;;;;5.98;100.00;100356.72;5076567;28;20047;-85
2024/03/24 06:19:26;;;;;;;15.73;4.13;;;;;;;5.92;100.00;100360.31;5062763;28;20032;-84
2024/03/24 06:21:53;;;;;;;11.15;3.78;;;;;;;5.98;100.00;100365.34;5069763;28;20049;-84
2024/03/24 06:24:18;;;;;;;12.05;3.08;;;;;;;5.97;100.00;100366.28;5060696;28;20024;-84
2024/03/24 06:26:44;;;;;;;11.73;3.55;;;;;;;6.00;100.00;100363.56;5062748;28;20085;-84
2024/03/24 06:29:10;;;;;;;13.18;3.60;;;;;;;6.03;100.00;100368.69;5060871;28;20386;-83
2024/03/24 06:31:36;;;;;;;19.10;4.35;;;;;;;6.02;100.00;100367.00;5043558;28;20059;-83
2024/03/24 06:34:03;;;;;;;10.43;3.70;;;;;;;6.07;100.00;100369.44;5066453;28;20089;-84
2024/03/24 06:36:29;;;;;;;10.23;3.35;;;;;;;6.07;100.00;100367.69;5069123;28;20327;-85
2024/03/24 06:38:54;;;;;;;19.92;3.95;;;;;;;6.13;100.00;100356.25;5070794;28;20040;-84
2024/03/24 06:41:19;;;;;;;16.63;4.05;;;;;;;6.13;100.00;100367.53;5075609;28;20254;-84
2024/03/24 06:43:45;;;;;;;29.25;4.82;;;;;;;6.17;100.00;100373.47;5066579;28;20231;-84
2024/03/24 06:46:10;;;;;;;16.85;3.80;;;;;;;6.19;100.00;100368.25;5066210;28;20028;-84
2024/03/24 06:48:36;;;;;;;13.98;3.55;;;;;;;6.19;100.00;100368.25;5077125;28;20071;-84
2024/03/24 06:51:02;;;;;;;17.92;3.80;;;;;;;6.19;100.00;100363.03;5066762;28;20102;-84
2024/03/24 06:53:27;;;;;;;18.75;3.50;;;;;;;6.19;100.00;100376.03;5059520;28;20298;-84
2024/03/24 06:55:52;;;;;;;15.93;3.08;;;;;;;6.20;100.00;100362.13;5059830;28;20037;-84
2024/03/24 06:58:18;;;;;;;15.27;3.35;;;;;;;6.22;100.00;100374.19;5059850;28;20044;-84
2024/03/24 07:00:44;;;;;;;14.32;3.17;;;;;;;6.21;100.00;100377.69;5059614;28;20028;-83
2024/03/24 07:03:10;;;;;;;10.30;3.08;;;;;;;6.26;100.00;100370.59;5068004;28;20033;-85
2024/03/24 07:05:35;;;;;;;13.32;3.38;;;;;;;6.27;100.00;100380.09;5067515;28;20037;-84
2024/03/24 07:08:00;;;;;;;11.38;3.17;;;;;;;6.32;100.00;100375.59;5066510;28;20106;-84
2024/03/24 07:10:26;;;;;;;10.18;2.90;;;;;;;6.30;100.00;100377.41;5059621;28;20334;-84
2024/03/24 07:12:51;;;;;;;12.55;3.00;;;;;;;6.34;100.00;100380.75;5071994;28;20040;-84
2024/03/24 07:15:16;;;;;;;9.80;3.03;;;;;;;6.35;100.00;100377.28;5075266;28;20096;-85
2024/03/24 07:17:42;;;;;;;13.90;3.22;;;;;;;6.34;100.00;100376.41;5064134;28;20036;-85
2024/03/24 07:20:08;;;;;;;16.70;2.67;;;;;;;6.36;100.00;100376.38;5071029;28;20029;-85
2024/03/24 07:22:33;;;;;;;9.55;2.38;;;;;;;6.41;100.00;100391.84;5048029;28;20032;-84
2024/03/24 07:24:58;;;;;;;11.60;3.17;;;;;;;6.47;100.00;100389.03;5046361;28;20032;-84
2024/03/24 07:27:24;;;;;;;18.25;3.10;;;;;;;6.47;100.00;100389.03;5041153;28;20240;-84
2024/03/24 07:29:50;;;;;;;11.85;2.97;;;;;;;6.49;100.00;100376.84;5073252;28;20041;-85
2024/03/24 07:32:16;;;;;;;15.05;3.25;;;;;;;6.56;100.00;100388.75;5073830;28;20103;-85
2024/03/24 07:34:41;;;;;;;14.10;3.40;;;;;;;6.62;100.00;100393.78;5058778;28;20033;-85
2024/03/24 07:37:07;;;;;;;12.43;3.15;;;;;;;6.58;100.00;100397.34;5059807;28;20313;-83
2024/03/24 07:39:32;;;;;;;9.73;3.08;;;;;;;6.58;100.00;100392.16;5076582;28;20040;-85
2024/03/24 07:41:58;;;;;;;11.73;3.10;;;;;;;6.58;100.00;100406.94;5068017;28;20331;-84
2024/03/24 07:44:24;;;;;;;13.90;3.08;;;;;;;6.63;100.00;100400.69;5059999;28;20348;-84
2024/03/24 07:46:50;;;;;;;12.85;2.85;;;;;;;6.62;100.00;100387.72;5058062;28;20033;-84
2024/03/24 07:49:15;;;;;;;8.98;2.65;;;;;;;6.61;100.00;100397.28;5063916;28;20371;-84
2024/03/24 07:51:41;;;;;;;13.77;3.20;;;;;;;6.61;100.00;100404.25;5071088;28;20028;-84
2024/03/24 07:54:07;;;;;;;10.82;2.60;;;;;;;6.57;100.00;100403.47;5067997;28;20051;-85
2024/03/24 07:56:33;;;;;;;9.20;2.92;;;;;;;6.61;100.00;100418.09;5062115;28;20040;-84
2024/03/24 07:58:59;;;;;;;14.10;3.08;;;;;;;6.58;100.00;100409.53;5067274;28;20368;-84
2024/03/24 08:01:24;;;;;;;10.25;2.53;;;;;;;6.56;100.00;100406.97;5066462;28;20051;-84
2024/03/24 08:03:50;;;;;;;10.95;2.33;;;;;;;6.62;100.00;100408.53;5067561;28;20032;-84
2024/03/24 08:06:15;;;;;;;8.50;2.42;;;;;;;6.60;100.00;100407.72;5061164;28;20071;-83
2024/03/24 08:08:41;;;;;;;10.80;2.72;;;;;;;6.62;100.00;100412.00;5060158;28;20021;-83
2024/03/24 08:11:06;;;;;;;7.55;2.47;;;;;;;6.60;100.00;100423.34;5048417;28;20091;-83
2024/03/24 08:13:31;;;;;;;10.77;2.60;;;;;;;6.60;100.00;100411.16;5061341;28;20041;-84
2024/03/24 08:15:57;;;;;;;12.40;2.95;;;;;;;6.61;100.00;100430.25;5068410;28;20035;-81
2024/03/24 08:18:22;;;;;;;9.63;2.70;;;;;;;6.63;100.00;100418.91;5068072;28;20048;-84
2024/03/24 08:20:48;;;;;;;10.05;2.83;;;;;;;6.62;100.00;100419.81;5063548;28;20040;-83
2024/03/24 08:23:14;;;;;;;11.15;3.00;;;;;;;6.61;100.00;100419.84;5063375;28;20204;-84
2024/03/24 08:25:43;;;;;;;9.90;2.95;;;;;;;6.58;100.00;100440.75;5068282;28;20074;-84
2024/03/24 08:28:09;;;;;;;14.63;2.58;;;;;;;6.59;100.00;100425.09;5064054;28;20029;-84
2024/03/24 08:30:35;;;;;;;12.45;3.03;;;;;;;6.60;100.00;100428.53;5067756;28;20096;-83
2024/03/24 08:33:00;;;;;;;11.60;2.90;;;;;;;6.61;100.00;100430.25;5068988;28;20045;-84
2024/03/24 08:35:26;;;;;;;16.55;2.50;;;;;;;6.61;100.00;100427.66;5065631;28;20323;-84
2024/03/24 08:37:51;;;;;;;11.32;2.25;;;;;;;6.67;100.00;100430.06;5047315;28;20308;-87
2024/03/24 08:40:17;;;;;;;13.77;2.50;;;;;;;6.64;100.00;100420.59;5063603;28;20017;-83
2024/03/24 08:42:46;;;;;;;11.52;2.50;;;;;;;6.72;100.00;100431.63;5064939;28;20047;-83
2024/03/24 08:45:11;;;;;;;8.70;2.60;;;;;;;6.73;100.00;100419.44;5041774;28;20029;-83
2024/03/24 08:47:37;;;;;;;9.70;2.40;;;;;;;6.72;100.00;100429.00;5067799;28;20092;-84
2024/03/24 08:50:03;;;;;;;12.65;3.58;;;;;;;6.78;100.00;100435.78;5057479;28;20048;-84
2024/03/24 08:52:29;;;;;;;12.75;2.75;;;;;;;6.80;100.00;100425.31;5076792;28;20351;-84
2024/03/24 08:54:55;;;;;;;14.65;2.30;;;;;;;6.80;100.00;100428.75;5039495;28;20024;-84
2024/03/24 08:57:20;;;;;;;14.73;3.10;;;;;;;6.84;100.00;100432.13;5056435;28;20044;-83
2024/03/24 08:59:45;;;;;;;10.98;2.50;;;;;;;6.80;100.00;100449.59;5055999;28;20021;-84
2024/03/24 09:02:11;;;;;;;13.48;3.00;;;;;;;6.79;100.00;100447.06;5042752;28;20064;-84
2024/03/24 09:04:36;;;;;;;16.67;3.33;;;;;;;6.71;100.00;100447.28;5038678;28;20036;-85
2024/03/24 09:07:01;;;;;;;16.13;3.08;;;;;;;6.51;100.00;100473.91;5051127;28;20063;-84
2024/03/24 09:09:27;;;;;;;12.32;2.67;;;;;;;6.25;100.00;100478.13;5061863;28;20323;-83
2024/03/24 09:11:52;;;;;;;9.63;2.30;;;;;;;5.88;100.00;100473.06;5055376;28;20040;-83
2024/03/24 09:14:17;;;;;;;7.47;1.75;;;;;;;5.78;100.00;100482.84;5055947;28;20017;-84
2024/03/24 09:16:43;;;;;;;10.45;2.28;;;;;;;5.70;100.00;100477.00;5068899;28;20036;-84
2024/03/24 09:19:08;;;;;;;5.75;1.88;;;;;;;5.79;100.00;100475.91;5079365;28;20035;-84
2024/03/24 09:21:34;;;;;;;7.80;1.40;;;;;;;5.95;100.00;100470.28;5075536;28;20408;-84
2024/03/24 09:23:59;;;;;;;7.07;1.70;;;;;;;6.04;100.00;100465.72;5067798;28;20040;-83
2024/03/24 09:26:25;;;;;;;3.03;1.02;;;;;;;6.06;100.00;100470.00;5060376;28;20061;-84
2024/03/24 09:28:50;;;;;;;5.00;1.10;;;;;;;6.27;100.00;100471.13;5060020;28;20028;-84
2024/03/24 09:31:16;;;;;;;2.65;1.08;;;;;;;6.33;100.00;100472.69;5059753;28;20075;-83
2024/03/24 09:33:41;;;;;;;3.40;0.98;;;;;;;6.34;100.00;100464.84;5060167;28;20232;-84
2024/03/24 09:36:06;;;;;;;10.02;2.33;;;;;;;6.38;100.00;100468.19;5064729;28;20039;-84
2024/03/24 09:38:32;;;;;;;9.40;2.13;;;;;;;6.43;100.00;100476.72;5057403;28;20042;-85
2024/03/24 09:40:57;;;;;;;6.40;1.65;;;;;;;6.48;100.00;100480.06;5079017;28;20048;-85
2024/03/24 09:43:23;;;;;;;10.00;1.42;;;;;;;6.54;100.00;100481.63;5065583;28;20021;-85
2024/03/24 09:45:49;;;;;;;6.57;1.77;;;;;;;6.56;100.00;100489.38;5059945;28;20040;-85
2024/03/24 09:48:16;;;;;;;7.55;1.98;;;;;;;6.53;100.00;100496.38;5058179;28;20240;-85
2024/03/24 09:50:42;;;;;;;6.53;1.58;;;;;;;6.49;100.00;100493.91;5060023;28;20033;-84
2024/03/24 09:53:09;;;;;;;7.60;1.75;;;;;;;6.58;100.00;100498.84;5062203;28;20035;-84
2024/03/24 09:55:34;;;;;;;7.88;1.73;;;;;;;6.53;100.00;100495.50;5076011;28;20100;-83
2024/03/24 09:58:00;;;;;;;9.93;2.20;;;;;;;6.51;100.00;100492.09;5026231;28;20075;-83
2024/03/24 10:00:28;;;;;;;9.65;2.03;;;;;;;6.51;100.00;100497.31;5059907;28;20047;-85
2024/03/24 10:02:54;;;;;;;7.80;1.95;;;;;;;6.49;100.00;100504.31;5053817;28;20335;-83
2024/03/24 10:05:21;;;;;;;11.13;2.35;;;;;;;6.45;100.00;100506.16;5069483;28;20032;-83
2024/03/24 10:07:47;;;;;;;10.93;2.75;;;;;;;6.44;100.00;100501.88;5067053;28;20044;-83
2024/03/24 10:10:13;;;;;;;17.60;3.60;;;;;;;6.40;100.00;100510.63;5063492;28;20346;-82
2024/03/24 10:12:50;;;;;;;16.67;3.80;;;;;;;6.42;100.00;100501.06;5068161;28;20028;-83
2024/03/24 10:15:22;;;;;;;15.43;2.83;;;;;;;6.45;100.00;100497.50;5071952;28;20103;-84
2024/03/24 10:17:47;;;;;;;17.95;3.17;;;;;;;6.50;100.00;100504.28;5062552;28;20033;-83
2024/03/24 10:20:14;;;;;;;14.50;2.65;;;;;;;6.61;100.00;100484.91;5066946;28;20119;-84
2024/03/24 10:22:52;;;;;;;20.45;3.75;;;;;;;6.61;100.00;100488.34;5066906;28;20086;-83
2024/03/24 10:25:28;;;;;;;20.25;3.35;;;;;;;6.61;100.00;100490.94;5069102;28;20052;-84
2024/03/24 10:27:55;;;;;;;21.65;3.00;;;;;;;6.63;100.00;100494.34;5067773;28;20217;-84
2024/03/24 10:30:21;;;;;;;32.63;3.92;;;;;;;6.71;100.00;100495.00;5067153;28;20039;-84
2024/03/24 10:32:46;;;;;;;20.83;3.38;;;;;;;6.66;100.00;100504.69;5065198;28;20036;-84
2024/03/24 10:35:12;;;;;;;23.90;3.85;;;;;;;6.63;100.00;100536.00;5063719;28;20066;-83
2024/03/24 10:37:38;;;;;;;14.02;3.17;;;;;;;6.59;100.00;100508.34;5068310;28;20096;-83
2024/03/24 10:40:13;;;;;;;27.27;4.72;;;;;;;6.58;100.00;100505.81;5069105;28;20036;-84
2024/03/24 10:42:47;;;;;;;19.17;3.88;;;;;;;6.48;100.00;100519.06;5066293;28;20138;-81
2024/03/24 10:45:15;;;;;;;26.02;3.90;;;;;;;6.53;100.00;100518.94;5047810;28;20024;-85
2024/03/24 10:47:42;;;;;;;36.92;4.43;;;;;;;6.59;100.00;100504.91;5062900;28;20043;-85
2024/03/24 10:50:14;;;;;;;26.90;4.00;;;;;;;6.63;100.00;100528.19;5058504;28;20033;-83
2024/03/24 10:52:42;;;;;;;11.00;3.03;;;;;;;6.70;100.00;100519.28;5056010;28;20072;-84
2024/03/24 10:55:09;;;;;;;19.77;3.15;;;;;;;6.76;100.00;100526.06;5069066;28;20193;-85
2024/03/24 10:57:38;;;;;;;22.48;3.17;;;;;;;6.82;100.00;100525.91;5073171;28;20037;-85
2024/03/24 11:00:04;;;;;;;18.88;3.55;;;;;;;6.88;100.00;100517.06;5061451;28;20013;-86
2024/03/24 11:02:29;;;;;;;13.10;2.75;;;;;;;6.89;100.00;100523.94;5054852;28;20366;-85
2024/03/24 11:04:55;;;;;;;19.90;3.00;;;;;;;6.87;100.00;100533.56;5048828;28;20542;-84
2024/03/24 11:07:22;;;;;;;15.32;2.92;;;;;;;6.91;100.00;100530.81;5055933;28;20421;-85
2024/03/24 11:09:47;;;;;;;16.52;2.65;;;;;;;6.92;100.00;100527.31;5072843;28;20028;-85
2024/03/24 11:12:13;;;;;;;16.23;3.00;;;;;;;6.96;100.00;100522.03;5074113;28;20067;-84